sensor_id;sensor_type;location;lat;lon;timestamp;P1;durP1;ratioP1;P2;durP2;ratioP2
77870;SDS011;67067;46.850;7.578;2023-12-20T02:12:34;14.95;;;6.85;;
77870;SDS011;67067;46.850;7.578;2023-12-20T02:13:36;11.50;;;6.53;;
77870;SDS011;67067;46.850;7.578;2023-12-20T02:15:40;10.20;;;6.43;;
77870;SDS011;67067;46.850;7.578;2023-12-20T02:16:44;9.07;;;6.60;;
77870;SDS011;67067;46.850;7.578;2023-12-20T02:17:46;8.90;;;6.25;;
77870;SDS011;67067;46.850;7.578;2023-12-20T02:18:49;12.85;;;6.82;;
77870;SDS011;67067;46.850;7.578;2023-12-20T02:19:51;10.60;;;6.15;;
77870;SDS011;67067;46.850;7.578;2023-12-20T02:20:53;8.82;;;5.88;;
77870;SDS011;67067;46.850;7.578;2023-12-20T02:23:13;12.07;;;6.47;;
77870;SDS011;67067;46.850;7.578;2023-12-20T02:24:14;10.82;;;6.30;;
77870;SDS011;67067;46.850;7.578;2023-12-20T02:25:19;8.95;;;6.40;;
77870;SDS011;67067;46.850;7.578;2023-12-20T02:26:21;10.05;;;6.13;;
77870;SDS011;67067;46.850;7.578;2023-12-20T02:27:23;7.97;;;5.60;;
77870;SDS011;67067;46.850;7.578;2023-12-20T02:28:25;11.48;;;5.65;;
77870;SDS011;67067;46.850;7.578;2023-12-20T02:29:28;11.73;;;6.20;;
77870;SDS011;67067;46.850;7.578;2023-12-20T02:30:29;9.52;;;5.95;;
77870;SDS011;67067;46.850;7.578;2023-12-20T02:32:34;9.98;;;5.22;;
77870;SDS011;67067;46.850;7.578;2023-12-20T02:33:36;10.63;;;5.88;;
77870;SDS011;67067;46.850;7.578;2023-12-20T02:34:37;9.20;;;5.28;;
77870;SDS011;67067;46.850;7.578;2023-12-20T02:35:39;9.30;;;5.80;;
77870;SDS011;67067;46.850;7.578;2023-12-20T02:37:43;8.33;;;5.50;;
77870;SDS011;67067;46.850;7.578;2023-12-20T02:38:45;6.95;;;5.13;;
77870;SDS011;67067;46.850;7.578;2023-12-20T02:40:48;10.25;;;5.10;;
77870;SDS011;67067;46.850;7.578;2023-12-20T02:41:50;7.28;;;5.35;;
77870;SDS011;67067;46.850;7.578;2023-12-20T02:42:52;6.88;;;4.93;;
77870;SDS011;67067;46.850;7.578;2023-12-20T02:43:54;7.25;;;4.80;;
77870;SDS011;67067;46.850;7.578;2023-12-20T02:44:56;7.25;;;4.93;;
77870;SDS011;67067;46.850;7.578;2023-12-20T02:46:00;6.78;;;4.70;;
77870;SDS011;67067;46.850;7.578;2023-12-20T02:47:04;4.90;;;3.90;;
77870;SDS011;67067;46.850;7.578;2023-12-20T02:48:06;6.75;;;4.47;;
77870;SDS011;67067;46.850;7.578;2023-12-20T02:49:10;5.50;;;4.00;;
77870;SDS011;67067;46.850;7.578;2023-12-20T02:50:12;8.70;;;5.18;;
77870;SDS011;67067;46.850;7.578;2023-12-20T02:51:14;8.25;;;4.80;;
77870;SDS011;67067;46.850;7.578;2023-12-20T02:53:17;7.38;;;4.95;;
77870;SDS011;67067;46.850;7.578;2023-12-20T02:55:21;10.03;;;5.57;;
77870;SDS011;67067;46.850;7.578;2023-12-20T02:56:23;7.95;;;5.13;;
77870;SDS011;67067;46.850;7.578;2023-12-20T02:58:29;9.38;;;4.97;;
77870;SDS011;67067;46.850;7.578;2023-12-20T02:59:31;6.65;;;4.50;;
77870;SDS011;67067;46.850;7.578;2023-12-20T03:00:32;5.88;;;4.30;;
77870;SDS011;67067;46.850;7.578;2023-12-20T03:01:41;6.65;;;3.83;;
77870;SDS011;67067;46.850;7.578;2023-12-20T03:02:44;5.25;;;3.95;;
77870;SDS011;67067;46.850;7.578;2023-12-20T03:04:47;5.75;;;4.03;;
77870;SDS011;67067;46.850;7.578;2023-12-20T03:05:50;6.53;;;4.53;;
77870;SDS011;67067;46.850;7.578;2023-12-20T03:06:52;5.60;;;4.50;;
77870;SDS011;67067;46.850;7.578;2023-12-20T03:08:55;7.07;;;4.85;;
77870;SDS011;67067;46.850;7.578;2023-12-20T03:09:59;9.02;;;4.80;;
77870;SDS011;67067;46.850;7.578;2023-12-20T03:11:20;7.72;;;4.70;;
77870;SDS011;67067;46.850;7.578;2023-12-20T03:12:23;6.47;;;4.78;;
77870;SDS011;67067;46.850;7.578;2023-12-20T03:14:27;8.00;;;4.80;;
77870;SDS011;67067;46.850;7.578;2023-12-20T03:15:28;6.22;;;4.90;;
77870;SDS011;67067;46.850;7.578;2023-12-20T03:16:30;8.32;;;5.35;;
77870;SDS011;67067;46.850;7.578;2023-12-20T03:17:37;9.90;;;5.18;;
77870;SDS011;67067;46.850;7.578;2023-12-20T03:18:39;8.95;;;4.97;;
77870;SDS011;67067;46.850;7.578;2023-12-20T03:19:41;8.25;;;4.78;;
77870;SDS011;67067;46.850;7.578;2023-12-20T03:20:45;9.07;;;4.70;;
77870;SDS011;67067;46.850;7.578;2023-12-20T03:21:48;6.90;;;5.07;;
77870;SDS011;67067;46.850;7.578;2023-12-20T03:22:50;6.55;;;4.88;;
77870;SDS011;67067;46.850;7.578;2023-12-20T03:23:52;6.40;;;4.85;;
77870;SDS011;67067;46.850;7.578;2023-12-20T03:24:53;9.50;;;4.63;;
77870;SDS011;67067;46.850;7.578;2023-12-20T03:25:56;8.82;;;4.85;;
77870;SDS011;67067;46.850;7.578;2023-12-20T03:26:58;6.18;;;4.72;;
77870;SDS011;67067;46.850;7.578;2023-12-20T03:28:02;6.57;;;4.68;;
77870;SDS011;67067;46.850;7.578;2023-12-20T03:29:04;5.20;;;4.18;;
77870;SDS011;67067;46.850;7.578;2023-12-20T03:30:08;6.78;;;4.28;;
77870;SDS011;67067;46.850;7.578;2023-12-20T03:31:10;6.47;;;4.18;;
77870;SDS011;67067;46.850;7.578;2023-12-20T03:32:12;8.50;;;4.57;;
77870;SDS011;67067;46.850;7.578;2023-12-20T03:33:16;5.50;;;3.90;;
77870;SDS011;67067;46.850;7.578;2023-12-20T03:34:20;4.57;;;3.50;;
77870;SDS011;67067;46.850;7.578;2023-12-20T03:35:24;4.03;;;3.33;;
77870;SDS011;67067;46.850;7.578;2023-12-20T03:36:28;3.17;;;2.90;;
77870;SDS011;67067;46.850;7.578;2023-12-20T03:37:32;3.55;;;3.10;;
77870;SDS011;67067;46.850;7.578;2023-12-20T03:39:36;6.97;;;4.70;;
77870;SDS011;67067;46.850;7.578;2023-12-20T03:40:38;6.30;;;4.80;;
77870;SDS011;67067;46.850;7.578;2023-12-20T03:42:41;7.72;;;4.55;;
77870;SDS011;67067;46.850;7.578;2023-12-20T03:44:44;7.40;;;4.15;;
77870;SDS011;67067;46.850;7.578;2023-12-20T03:45:48;6.30;;;4.40;;
77870;SDS011;67067;46.850;7.578;2023-12-20T03:47:52;7.00;;;4.43;;
77870;SDS011;67067;46.850;7.578;2023-12-20T03:48:58;6.95;;;4.40;;
77870;SDS011;67067;46.850;7.578;2023-12-20T03:50:05;8.85;;;4.85;;
77870;SDS011;67067;46.850;7.578;2023-12-20T03:51:08;6.00;;;4.45;;
77870;SDS011;67067;46.850;7.578;2023-12-20T03:52:09;6.82;;;4.70;;
77870;SDS011;67067;46.850;7.578;2023-12-20T03:53:13;6.53;;;4.25;;
77870;SDS011;67067;46.850;7.578;2023-12-20T03:54:17;6.05;;;4.30;;
77870;SDS011;67067;46.850;7.578;2023-12-20T03:55:20;8.20;;;4.68;;
77870;SDS011;67067;46.850;7.578;2023-12-20T03:57:23;5.80;;;4.13;;
77870;SDS011;67067;46.850;7.578;2023-12-20T03:59:26;6.03;;;4.50;;
77870;SDS011;67067;46.850;7.578;2023-12-20T04:01:33;8.20;;;4.75;;
77870;SDS011;67067;46.850;7.578;2023-12-20T04:02:35;7.30;;;4.20;;
77870;SDS011;67067;46.850;7.578;2023-12-20T04:03:37;9.32;;;4.57;;
77870;SDS011;67067;46.850;7.578;2023-12-20T04:04:40;7.13;;;4.60;;
77870;SDS011;67067;46.850;7.578;2023-12-20T04:05:41;5.90;;;3.90;;
77870;SDS011;67067;46.850;7.578;2023-12-20T04:06:45;6.72;;;4.22;;
77870;SDS011;67067;46.850;7.578;2023-12-20T04:07:46;5.10;;;3.83;;
77870;SDS011;67067;46.850;7.578;2023-12-20T04:08:49;5.28;;;3.75;;
77870;SDS011;67067;46.850;7.578;2023-12-20T04:09:51;5.13;;;3.90;;
77870;SDS011;67067;46.850;7.578;2023-12-20T04:11:54;3.50;;;3.03;;
77870;SDS011;67067;46.850;7.578;2023-12-20T04:12:58;3.80;;;2.97;;
77870;SDS011;67067;46.850;7.578;2023-12-20T04:14:02;8.07;;;3.25;;
77870;SDS011;67067;46.850;7.578;2023-12-20T04:15:03;6.18;;;3.67;;
77870;SDS011;67067;46.850;7.578;2023-12-20T04:16:11;3.65;;;2.70;;
77870;SDS011;67067;46.850;7.578;2023-12-20T04:18:17;3.22;;;2.53;;
77870;SDS011;67067;46.850;7.578;2023-12-20T04:20:20;4.60;;;3.20;;
77870;SDS011;67067;46.850;7.578;2023-12-20T04:21:22;5.20;;;3.05;;
77870;SDS011;67067;46.850;7.578;2023-12-20T04:23:25;2.70;;;2.20;;
77870;SDS011;67067;46.850;7.578;2023-12-20T04:25:29;2.38;;;2.17;;
77870;SDS011;67067;46.850;7.578;2023-12-20T04:27:35;3.13;;;2.40;;
77870;SDS011;67067;46.850;7.578;2023-12-20T04:28:39;1.80;;;1.70;;
77870;SDS011;67067;46.850;7.578;2023-12-20T04:29:45;2.03;;;1.75;;
77870;SDS011;67067;46.850;7.578;2023-12-20T04:30:47;2.20;;;2.00;;
77870;SDS011;67067;46.850;7.578;2023-12-20T04:31:49;3.88;;;1.73;;
77870;SDS011;67067;46.850;7.578;2023-12-20T04:32:52;3.60;;;2.00;;
77870;SDS011;67067;46.850;7.578;2023-12-20T04:34:56;1.95;;;1.55;;
77870;SDS011;67067;46.850;7.578;2023-12-20T04:35:58;4.28;;;2.10;;
77870;SDS011;67067;46.850;7.578;2023-12-20T04:37:01;1.98;;;1.85;;
77870;SDS011;67067;46.850;7.578;2023-12-20T04:38:03;1.50;;;1.40;;
77870;SDS011;67067;46.850;7.578;2023-12-20T04:39:05;2.33;;;1.70;;
77870;SDS011;67067;46.850;7.578;2023-12-20T04:40:08;1.80;;;1.70;;
77870;SDS011;67067;46.850;7.578;2023-12-20T04:41:10;1.50;;;1.40;;
77870;SDS011;67067;46.850;7.578;2023-12-20T04:42:17;1.88;;;1.65;;
77870;SDS011;67067;46.850;7.578;2023-12-20T04:43:19;1.52;;;1.42;;
77870;SDS011;67067;46.850;7.578;2023-12-20T04:44:24;1.77;;;1.50;;
77870;SDS011;67067;46.850;7.578;2023-12-20T04:45:25;2.53;;;1.70;;
77870;SDS011;67067;46.850;7.578;2023-12-20T04:47:31;2.88;;;1.58;;
77870;SDS011;67067;46.850;7.578;2023-12-20T04:48:36;1.80;;;1.70;;
77870;SDS011;67067;46.850;7.578;2023-12-20T04:49:38;1.70;;;1.60;;
77870;SDS011;67067;46.850;7.578;2023-12-20T04:50:39;1.95;;;1.80;;
77870;SDS011;67067;46.850;7.578;2023-12-20T04:51:41;2.03;;;1.83;;
77870;SDS011;67067;46.850;7.578;2023-12-20T04:53:45;1.40;;;1.30;;
77870;SDS011;67067;46.850;7.578;2023-12-20T04:55:50;2.95;;;1.40;;
77870;SDS011;67067;46.850;7.578;2023-12-20T04:57:57;2.15;;;1.60;;
77870;SDS011;67067;46.850;7.578;2023-12-20T04:59:01;1.58;;;1.48;;
77870;SDS011;67067;46.850;7.578;2023-12-20T05:00:03;3.10;;;1.55;;
77870;SDS011;67067;46.850;7.578;2023-12-20T05:02:15;1.40;;;1.30;;
77870;SDS011;67067;46.850;7.578;2023-12-20T05:03:17;1.73;;;1.63;;
77870;SDS011;67067;46.850;7.578;2023-12-20T05:04:21;1.13;;;1.13;;
77870;SDS011;67067;46.850;7.578;2023-12-20T05:06:24;1.30;;;1.20;;
77870;SDS011;67067;46.850;7.578;2023-12-20T05:08:27;1.00;;;1.00;;
77870;SDS011;67067;46.850;7.578;2023-12-20T05:10:31;1.30;;;1.20;;
77870;SDS011;67067;46.850;7.578;2023-12-20T05:11:33;1.00;;;0.90;;
77870;SDS011;67067;46.850;7.578;2023-12-20T05:12:34;0.95;;;0.95;;
77870;SDS011;67067;46.850;7.578;2023-12-20T05:13:36;0.80;;;0.80;;
77870;SDS011;67067;46.850;7.578;2023-12-20T05:14:51;0.80;;;0.80;;
77870;SDS011;67067;46.850;7.578;2023-12-20T05:15:53;2.60;;;1.00;;
77870;SDS011;67067;46.850;7.578;2023-12-20T05:16:55;2.72;;;1.42;;
77870;SDS011;67067;46.850;7.578;2023-12-20T05:18:00;1.25;;;0.85;;
77870;SDS011;67067;46.850;7.578;2023-12-20T05:19:02;1.20;;;1.20;;
77870;SDS011;67067;46.850;7.578;2023-12-20T05:20:08;2.00;;;1.30;;
77870;SDS011;67067;46.850;7.578;2023-12-20T05:21:10;4.05;;;1.90;;
77870;SDS011;67067;46.850;7.578;2023-12-20T05:22:12;2.00;;;1.77;;
77870;SDS011;67067;46.850;7.578;2023-12-20T05:24:16;2.15;;;1.38;;
77870;SDS011;67067;46.850;7.578;2023-12-20T05:25:18;2.42;;;1.70;;
77870;SDS011;67067;46.850;7.578;2023-12-20T05:26:20;1.65;;;1.50;;
77870;SDS011;67067;46.850;7.578;2023-12-20T05:28:26;2.15;;;1.58;;
77870;SDS011;67067;46.850;7.578;2023-12-20T05:29:31;1.60;;;1.50;;
77870;SDS011;67067;46.850;7.578;2023-12-20T05:30:33;3.25;;;2.45;;
77870;SDS011;67067;46.850;7.578;2023-12-20T05:31:34;2.78;;;2.05;;
77870;SDS011;67067;46.850;7.578;2023-12-20T05:32:36;2.35;;;2.15;;
77870;SDS011;67067;46.850;7.578;2023-12-20T05:33:38;2.00;;;1.88;;
77870;SDS011;67067;46.850;7.578;2023-12-20T05:34:40;3.70;;;1.80;;
77870;SDS011;67067;46.850;7.578;2023-12-20T05:35:42;2.33;;;2.20;;
77870;SDS011;67067;46.850;7.578;2023-12-20T05:36:44;4.82;;;2.72;;
77870;SDS011;67067;46.850;7.578;2023-12-20T05:37:46;4.00;;;3.03;;
77870;SDS011;67067;46.850;7.578;2023-12-20T05:38:48;9.38;;;4.05;;
77870;SDS011;67067;46.850;7.578;2023-12-20T05:39:49;7.10;;;4.75;;
77870;SDS011;67067;46.850;7.578;2023-12-20T05:41:55;9.52;;;5.18;;
77870;SDS011;67067;46.850;7.578;2023-12-20T05:43:02;8.95;;;5.95;;
77870;SDS011;67067;46.850;7.578;2023-12-20T05:44:04;8.77;;;5.40;;
77870;SDS011;67067;46.850;7.578;2023-12-20T05:46:09;10.07;;;5.30;;
77870;SDS011;67067;46.850;7.578;2023-12-20T05:47:13;10.25;;;5.30;;
77870;SDS011;67067;46.850;7.578;2023-12-20T05:48:15;12.48;;;6.00;;
77870;SDS011;67067;46.850;7.578;2023-12-20T05:49:17;11.82;;;6.32;;
77870;SDS011;67067;46.850;7.578;2023-12-20T05:50:19;12.40;;;6.78;;
77870;SDS011;67067;46.850;7.578;2023-12-20T05:51:21;12.10;;;6.60;;
77870;SDS011;67067;46.850;7.578;2023-12-20T05:53:24;11.18;;;5.80;;
77870;SDS011;67067;46.850;7.578;2023-12-20T05:55:28;12.55;;;6.22;;
77870;SDS011;67067;46.850;7.578;2023-12-20T05:57:34;10.18;;;5.82;;
77870;SDS011;67067;46.850;7.578;2023-12-20T05:58:37;10.73;;;6.18;;
77870;SDS011;67067;46.850;7.578;2023-12-20T05:59:40;10.27;;;6.05;;
77870;SDS011;67067;46.850;7.578;2023-12-20T06:00:44;11.20;;;6.55;;
77870;SDS011;67067;46.850;7.578;2023-12-20T06:01:48;10.70;;;6.57;;
77870;SDS011;67067;46.850;7.578;2023-12-20T06:02:49;11.23;;;5.93;;
77870;SDS011;67067;46.850;7.578;2023-12-20T06:03:51;9.63;;;6.05;;
77870;SDS011;67067;46.850;7.578;2023-12-20T06:04:53;8.07;;;6.05;;
77870;SDS011;67067;46.850;7.578;2023-12-20T06:05:56;13.45;;;6.30;;
77870;SDS011;67067;46.850;7.578;2023-12-20T06:07:14;10.43;;;6.20;;
77870;SDS011;67067;46.850;7.578;2023-12-20T06:08:16;10.68;;;6.32;;
77870;SDS011;67067;46.850;7.578;2023-12-20T06:10:23;9.20;;;5.18;;
77870;SDS011;67067;46.850;7.578;2023-12-20T06:11:27;9.50;;;5.22;;
77870;SDS011;67067;46.850;7.578;2023-12-20T06:12:29;9.88;;;5.70;;
77870;SDS011;67067;46.850;7.578;2023-12-20T06:13:33;9.32;;;5.55;;
77870;SDS011;67067;46.850;7.578;2023-12-20T06:14:35;15.15;;;6.82;;
77870;SDS011;67067;46.850;7.578;2023-12-20T06:16:38;10.38;;;5.55;;
77870;SDS011;67067;46.850;7.578;2023-12-20T06:17:40;9.23;;;5.97;;
77870;SDS011;67067;46.850;7.578;2023-12-20T06:18:42;12.35;;;6.60;;
77870;SDS011;67067;46.850;7.578;2023-12-20T06:19:44;10.77;;;5.68;;
77870;SDS011;67067;46.850;7.578;2023-12-20T06:20:49;8.13;;;5.28;;
77870;SDS011;67067;46.850;7.578;2023-12-20T06:21:53;7.68;;;5.30;;
77870;SDS011;67067;46.850;7.578;2023-12-20T06:22:55;9.25;;;5.60;;
77870;SDS011;67067;46.850;7.578;2023-12-20T06:23:59;9.40;;;5.13;;
77870;SDS011;67067;46.850;7.578;2023-12-20T06:25:02;6.72;;;4.40;;
77870;SDS011;67067;46.850;7.578;2023-12-20T06:26:04;7.35;;;4.75;;
77870;SDS011;67067;46.850;7.578;2023-12-20T06:28:10;11.98;;;5.20;;
77870;SDS011;67067;46.850;7.578;2023-12-20T06:29:15;9.15;;;5.22;;
77870;SDS011;67067;46.850;7.578;2023-12-20T06:30:17;9.88;;;5.75;;
77870;SDS011;67067;46.850;7.578;2023-12-20T06:31:19;8.88;;;5.18;;
77870;SDS011;67067;46.850;7.578;2023-12-20T06:32:21;7.72;;;5.30;;
77870;SDS011;67067;46.850;7.578;2023-12-20T06:33:24;7.55;;;5.70;;
77870;SDS011;67067;46.850;7.578;2023-12-20T06:34:27;8.65;;;5.53;;
77870;SDS011;67067;46.850;7.578;2023-12-20T06:35:28;9.73;;;5.50;;
77870;SDS011;67067;46.850;7.578;2023-12-20T06:36:32;9.48;;;5.40;;
77870;SDS011;67067;46.850;7.578;2023-12-20T06:38:36;9.05;;;5.13;;
77870;SDS011;67067;46.850;7.578;2023-12-20T06:39:40;8.35;;;5.47;;
77870;SDS011;67067;46.850;7.578;2023-12-20T06:40:44;11.43;;;6.93;;
77870;SDS011;67067;46.850;7.578;2023-12-20T06:41:47;13.10;;;7.38;;
77870;SDS011;67067;46.850;7.578;2023-12-20T06:42:51;12.18;;;7.32;;
77870;SDS011;67067;46.850;7.578;2023-12-20T06:44:07;15.75;;;8.00;;
77870;SDS011;67067;46.850;7.578;2023-12-20T06:45:08;11.95;;;7.68;;
77870;SDS011;67067;46.850;7.578;2023-12-20T06:46:11;12.73;;;7.60;;
77870;SDS011;67067;46.850;7.578;2023-12-20T06:47:14;13.43;;;8.18;;
77870;SDS011;67067;46.850;7.578;2023-12-20T06:48:16;15.05;;;8.10;;
77870;SDS011;67067;46.850;7.578;2023-12-20T06:49:20;11.45;;;7.20;;
77870;SDS011;67067;46.850;7.578;2023-12-20T06:50:22;12.25;;;7.43;;
77870;SDS011;67067;46.850;7.578;2023-12-20T06:51:24;14.00;;;7.50;;
77870;SDS011;67067;46.850;7.578;2023-12-20T06:52:26;16.23;;;8.32;;
77870;SDS011;67067;46.850;7.578;2023-12-20T06:53:30;17.15;;;7.53;;
77870;SDS011;67067;46.850;7.578;2023-12-20T06:54:32;10.32;;;6.97;;
77870;SDS011;67067;46.850;7.578;2023-12-20T06:55:36;12.55;;;7.32;;
77870;SDS011;67067;46.850;7.578;2023-12-20T06:56:41;11.55;;;7.72;;
77870;SDS011;67067;46.850;7.578;2023-12-20T06:57:45;17.27;;;8.95;;
77870;SDS011;67067;46.850;7.578;2023-12-20T06:58:47;16.05;;;8.35;;
77870;SDS011;67067;46.850;7.578;2023-12-20T06:59:51;21.58;;;11.05;;
77870;SDS011;67067;46.850;7.578;2023-12-20T07:00:53;15.07;;;7.32;;
77870;SDS011;67067;46.850;7.578;2023-12-20T07:01:55;16.42;;;8.43;;
77870;SDS011;67067;46.850;7.578;2023-12-20T07:02:57;14.40;;;7.82;;
77870;SDS011;67067;46.850;7.578;2023-12-20T07:05:01;21.52;;;9.88;;
77870;SDS011;67067;46.850;7.578;2023-12-20T07:06:03;21.90;;;10.18;;
77870;SDS011;67067;46.850;7.578;2023-12-20T07:07:05;20.42;;;9.88;;
77870;SDS011;67067;46.850;7.578;2023-12-20T07:08:09;18.50;;;9.15;;
77870;SDS011;67067;46.850;7.578;2023-12-20T07:09:15;18.80;;;9.27;;
77870;SDS011;67067;46.850;7.578;2023-12-20T07:11:19;19.08;;;8.70;;
77870;SDS011;67067;46.850;7.578;2023-12-20T07:12:21;15.85;;;8.55;;
77870;SDS011;67067;46.850;7.578;2023-12-20T07:13:25;11.98;;;7.18;;
77870;SDS011;67067;46.850;7.578;2023-12-20T07:14:27;16.42;;;8.00;;
77870;SDS011;67067;46.850;7.578;2023-12-20T07:15:29;13.23;;;7.93;;
77870;SDS011;67067;46.850;7.578;2023-12-20T07:16:32;17.27;;;9.27;;
77870;SDS011;67067;46.850;7.578;2023-12-20T07:17:41;16.25;;;9.27;;
77870;SDS011;67067;46.850;7.578;2023-12-20T07:18:44;14.75;;;8.50;;
77870;SDS011;67067;46.850;7.578;2023-12-20T07:19:46;19.17;;;9.70;;
77870;SDS011;67067;46.850;7.578;2023-12-20T07:20:48;19.55;;;10.23;;
77870;SDS011;67067;46.850;7.578;2023-12-20T07:21:50;17.13;;;9.32;;
77870;SDS011;67067;46.850;7.578;2023-12-20T07:22:52;18.83;;;9.98;;
77870;SDS011;67067;46.850;7.578;2023-12-20T07:24:55;17.10;;;9.98;;
77870;SDS011;67067;46.850;7.578;2023-12-20T07:26:59;16.13;;;8.70;;
77870;SDS011;67067;46.850;7.578;2023-12-20T07:28:04;19.10;;;9.05;;
77870;SDS011;67067;46.850;7.578;2023-12-20T07:29:06;14.05;;;7.72;;
77870;SDS011;67067;46.850;7.578;2023-12-20T07:30:10;15.15;;;8.10;;
77870;SDS011;67067;46.850;7.578;2023-12-20T07:31:12;12.52;;;6.97;;
77870;SDS011;67067;46.850;7.578;2023-12-20T07:33:17;9.20;;;5.93;;
77870;SDS011;67067;46.850;7.578;2023-12-20T07:34:21;10.13;;;6.20;;
77870;SDS011;67067;46.850;7.578;2023-12-20T07:35:24;9.60;;;5.72;;
77870;SDS011;67067;46.850;7.578;2023-12-20T07:36:27;9.30;;;6.00;;
77870;SDS011;67067;46.850;7.578;2023-12-20T07:37:29;10.10;;;6.15;;
77870;SDS011;67067;46.850;7.578;2023-12-20T07:39:32;9.00;;;5.78;;
77870;SDS011;67067;46.850;7.578;2023-12-20T07:41:38;9.20;;;6.03;;
77870;SDS011;67067;46.850;7.578;2023-12-20T07:42:40;10.60;;;7.07;;
77870;SDS011;67067;46.850;7.578;2023-12-20T07:44:43;15.33;;;7.43;;
77870;SDS011;67067;46.850;7.578;2023-12-20T07:45:45;9.60;;;6.35;;
77870;SDS011;67067;46.850;7.578;2023-12-20T07:46:47;11.57;;;6.28;;
77870;SDS011;67067;46.850;7.578;2023-12-20T07:47:50;9.68;;;6.18;;
77870;SDS011;67067;46.850;7.578;2023-12-20T07:48:52;9.93;;;5.43;;
77870;SDS011;67067;46.850;7.578;2023-12-20T07:49:53;7.03;;;5.38;;
77870;SDS011;67067;46.850;7.578;2023-12-20T07:50:55;10.80;;;6.43;;
77870;SDS011;67067;46.850;7.578;2023-12-20T07:52:59;10.27;;;6.20;;
77870;SDS011;67067;46.850;7.578;2023-12-20T07:54:02;12.90;;;6.70;;
77870;SDS011;67067;46.850;7.578;2023-12-20T07:55:05;9.63;;;6.32;;
77870;SDS011;67067;46.850;7.578;2023-12-20T07:56:15;10.68;;;5.93;;
77870;SDS011;67067;46.850;7.578;2023-12-20T07:57:18;12.82;;;6.53;;
77870;SDS011;67067;46.850;7.578;2023-12-20T07:58:20;7.93;;;5.32;;
77870;SDS011;67067;46.850;7.578;2023-12-20T07:59:23;9.32;;;5.07;;
77870;SDS011;67067;46.850;7.578;2023-12-20T08:02:19;8.68;;;5.18;;
77870;SDS011;67067;46.850;7.578;2023-12-20T08:04:22;10.25;;;6.10;;
77870;SDS011;67067;46.850;7.578;2023-12-20T08:05:26;9.50;;;4.75;;
77870;SDS011;67067;46.850;7.578;2023-12-20T08:07:30;10.47;;;6.10;;
77870;SDS011;67067;46.850;7.578;2023-12-20T08:08:34;9.75;;;6.10;;
77870;SDS011;67067;46.850;7.578;2023-12-20T08:09:36;10.25;;;6.47;;
77870;SDS011;67067;46.850;7.578;2023-12-20T08:10:38;10.45;;;6.50;;
77870;SDS011;67067;46.850;7.578;2023-12-20T08:11:40;12.80;;;7.03;;
77870;SDS011;67067;46.850;7.578;2023-12-20T08:12:49;10.75;;;6.70;;
77870;SDS011;67067;46.850;7.578;2023-12-20T08:13:56;12.57;;;7.22;;
77870;SDS011;67067;46.850;7.578;2023-12-20T08:14:58;16.70;;;7.40;;
77870;SDS011;67067;46.850;7.578;2023-12-20T08:17:06;10.77;;;6.68;;
77870;SDS011;67067;46.850;7.578;2023-12-20T08:18:08;11.65;;;6.45;;
77870;SDS011;67067;46.850;7.578;2023-12-20T08:19:10;15.38;;;7.43;;
77870;SDS011;67067;46.850;7.578;2023-12-20T08:20:13;13.60;;;6.80;;
77870;SDS011;67067;46.850;7.578;2023-12-20T08:21:23;15.13;;;8.13;;
77870;SDS011;67067;46.850;7.578;2023-12-20T08:22:25;17.02;;;7.68;;
77870;SDS011;67067;46.850;7.578;2023-12-20T08:23:27;12.90;;;6.50;;
77870;SDS011;67067;46.850;7.578;2023-12-20T08:24:32;13.82;;;7.18;;
77870;SDS011;67067;46.850;7.578;2023-12-20T08:25:34;13.73;;;7.50;;
77870;SDS011;67067;46.850;7.578;2023-12-20T08:26:35;13.82;;;7.53;;
77870;SDS011;67067;46.850;7.578;2023-12-20T08:28:41;17.27;;;8.55;;
77870;SDS011;67067;46.850;7.578;2023-12-20T08:30:47;13.10;;;6.55;;
77870;SDS011;67067;46.850;7.578;2023-12-20T08:31:52;12.00;;;6.45;;
77870;SDS011;67067;46.850;7.578;2023-12-20T08:32:55;14.77;;;7.30;;
77870;SDS011;67067;46.850;7.578;2023-12-20T08:34:59;10.80;;;6.65;;
77870;SDS011;67067;46.850;7.578;2023-12-20T08:36:01;13.07;;;6.40;;
77870;SDS011;67067;46.850;7.578;2023-12-20T08:37:06;17.02;;;5.90;;
77870;SDS011;67067;46.850;7.578;2023-12-20T08:38:08;9.38;;;6.07;;
77870;SDS011;67067;46.850;7.578;2023-12-20T08:40:11;14.07;;;7.13;;
77870;SDS011;67067;46.850;7.578;2023-12-20T08:41:14;16.08;;;7.65;;
77870;SDS011;67067;46.850;7.578;2023-12-20T08:42:15;13.52;;;6.68;;
77870;SDS011;67067;46.850;7.578;2023-12-20T08:43:17;11.95;;;6.85;;
77870;SDS011;67067;46.850;7.578;2023-12-20T08:44:20;14.90;;;7.20;;
77870;SDS011;67067;46.850;7.578;2023-12-20T08:45:25;11.13;;;6.32;;
77870;SDS011;67067;46.850;7.578;2023-12-20T08:47:31;11.95;;;6.55;;
77870;SDS011;67067;46.850;7.578;2023-12-20T08:49:35;11.15;;;6.47;;
77870;SDS011;67067;46.850;7.578;2023-12-20T08:50:37;12.45;;;6.22;;
77870;SDS011;67067;46.850;7.578;2023-12-20T08:51:40;17.42;;;7.60;;
77870;SDS011;67067;46.850;7.578;2023-12-20T08:52:43;16.83;;;8.23;;
77870;SDS011;67067;46.850;7.578;2023-12-20T08:54:49;14.85;;;8.52;;
77870;SDS011;67067;46.850;7.578;2023-12-20T08:55:55;12.68;;;7.50;;
77870;SDS011;67067;46.850;7.578;2023-12-20T08:56:56;14.73;;;7.75;;
77870;SDS011;67067;46.850;7.578;2023-12-20T08:57:58;11.82;;;7.90;;
77870;SDS011;67067;46.850;7.578;2023-12-20T08:59:00;13.55;;;8.00;;
77870;SDS011;67067;46.850;7.578;2023-12-20T09:00:02;15.00;;;8.32;;
77870;SDS011;67067;46.850;7.578;2023-12-20T09:01:06;14.15;;;8.25;;
77870;SDS011;67067;46.850;7.578;2023-12-20T09:02:09;14.65;;;8.45;;
77870;SDS011;67067;46.850;7.578;2023-12-20T09:04:12;12.10;;;6.77;;
77870;SDS011;67067;46.850;7.578;2023-12-20T09:05:15;14.20;;;7.65;;
77870;SDS011;67067;46.850;7.578;2023-12-20T09:06:17;12.38;;;7.43;;
77870;SDS011;67067;46.850;7.578;2023-12-20T09:08:24;12.93;;;7.30;;
77870;SDS011;67067;46.850;7.578;2023-12-20T09:10:27;13.88;;;6.70;;
77870;SDS011;67067;46.850;7.578;2023-12-20T09:11:29;15.82;;;6.78;;
77870;SDS011;67067;46.850;7.578;2023-12-20T09:12:34;11.77;;;6.82;;
77870;SDS011;67067;46.850;7.578;2023-12-20T09:13:35;12.15;;;6.90;;
77870;SDS011;67067;46.850;7.578;2023-12-20T09:15:40;11.50;;;6.78;;
77870;SDS011;67067;46.850;7.578;2023-12-20T09:17:45;11.98;;;6.28;;
77870;SDS011;67067;46.850;7.578;2023-12-20T09:18:47;11.57;;;6.10;;
77870;SDS011;67067;46.850;7.578;2023-12-20T09:20:51;11.55;;;6.30;;
77870;SDS011;67067;46.850;7.578;2023-12-20T09:21:53;11.50;;;5.78;;
77870;SDS011;67067;46.850;7.578;2023-12-20T09:22:57;11.18;;;6.80;;
77870;SDS011;67067;46.850;7.578;2023-12-20T09:25:01;12.10;;;6.80;;
77870;SDS011;67067;46.850;7.578;2023-12-20T09:26:08;11.32;;;6.30;;
77870;SDS011;67067;46.850;7.578;2023-12-20T09:27:11;11.82;;;6.68;;
77870;SDS011;67067;46.850;7.578;2023-12-20T09:28:15;13.15;;;6.57;;
77870;SDS011;67067;46.850;7.578;2023-12-20T09:30:23;12.43;;;6.13;;
77870;SDS011;67067;46.850;7.578;2023-12-20T09:31:28;12.60;;;6.38;;
77870;SDS011;67067;46.850;7.578;2023-12-20T09:32:32;8.57;;;5.82;;
77870;SDS011;67067;46.850;7.578;2023-12-20T09:33:34;10.75;;;6.18;;
77870;SDS011;67067;46.850;7.578;2023-12-20T09:34:36;7.82;;;5.68;;
77870;SDS011;67067;46.850;7.578;2023-12-20T09:35:39;11.93;;;6.47;;
77870;SDS011;67067;46.850;7.578;2023-12-20T09:36:43;9.40;;;5.47;;
77870;SDS011;67067;46.850;7.578;2023-12-20T09:37:51;11.95;;;6.32;;
77870;SDS011;67067;46.850;7.578;2023-12-20T09:38:54;9.75;;;5.50;;
77870;SDS011;67067;46.850;7.578;2023-12-20T09:39:58;9.57;;;5.63;;
77870;SDS011;67067;46.850;7.578;2023-12-20T09:41:00;10.70;;;5.22;;
77870;SDS011;67067;46.850;7.578;2023-12-20T09:42:05;12.60;;;5.68;;
77870;SDS011;67067;46.850;7.578;2023-12-20T09:43:10;8.75;;;5.45;;
77870;SDS011;67067;46.850;7.578;2023-12-20T09:44:15;8.05;;;5.32;;